Time;durP1;ratioP1;P1;durP2;ratioP2;P2;SDS_P1;SDS_P2;PMS_P1;PMS_P2;Temp;Humidity;BMP_temperature;BMP_pressure;BME280_temperature;BME280_humidity;BME280_pressure;Samples;Min_cycle;Max_cycle;Signal;HPM_P1;HPM_P2
2022/04/30 00:02:21;;;;;;;84.00;61.20;;;;;;;4.70;83.45;99792.29;105027;1271;61460;-71
2022/04/30 00:04:48;;;;;;;88.40;62.70;;;;;;;4.64;83.76;99789.81;105029;1271;61388;-74
2022/04/30 00:07:19;;;;;;;87.70;65.30;;;;;;;4.60;84.06;99786.95;105106;1271;61392;-74
2022/04/30 00:09:47;;;;;;;79.20;61.20;;;;;;;4.57;83.95;99784.23;105031;1271;61209;-75
2022/04/30 00:12:13;;;;;;;86.00;59.30;;;;;;;4.52;84.07;99784.02;105112;1271;74047;-75
2022/04/30 00:14:40;;;;;;;81.20;59.00;;;;;;;4.47;84.13;99784.52;105018;1271;69275;-74
2022/04/30 00:17:06;;;;;;;83.50;61.00;;;;;;;4.43;84.35;99780.78;105023;1271;74515;-75
2022/04/30 00:19:33;;;;;;;90.70;64.50;;;;;;;4.38;84.74;99782.83;104949;1271;61285;-74
2022/04/30 00:21:59;;;;;;;88.40;61.80;;;;;;;4.34;85.05;99781.55;105000;1271;61495;-74
2022/04/30 00:24:26;;;;;;;87.50;60.10;;;;;;;4.30;85.19;99783.41;105001;1271;61294;-76
2022/04/30 00:26:55;;;;;;;84.40;61.20;;;;;;;4.28;85.34;99784.73;105074;1271;69436;-74
2022/04/30 00:29:21;;;;;;;88.80;61.10;;;;;;;4.21;85.68;99787.89;105010;1271;73365;-74
2022/04/30 00:31:48;;;;;;;86.70;62.50;;;;;;;4.16;85.69;99787.88;104873;1271;61348;-75
2022/04/30 00:34:15;;;;;;;99.10;69.70;;;;;;;4.13;86.23;99787.96;105041;1271;61226;-74
2022/04/30 00:36:41;;;;;;;94.70;65.80;;;;;;;4.12;86.52;99787.96;104874;1271;75282;-75
2022/04/30 00:39:07;;;;;;;106.10;71.40;;;;;;;4.12;86.50;99785.00;105015;1271;61302;-75
2022/04/30 00:41:33;;;;;;;88.70;64.10;;;;;;;4.10;86.53;99789.63;105006;1271;61357;-74
2022/04/30 00:44:00;;;;;;;93.90;63.60;;;;;;;4.05;86.67;99788.17;105010;1271;61231;-76
2022/04/30 00:46:28;;;;;;;89.90;63.10;;;;;;;4.01;86.88;99791.28;104970;1271;61468;-75
2022/04/30 00:48:54;;;;;;;90.10;64.80;;;;;;;3.96;86.90;99789.11;105044;1271;74600;-74
2022/04/30 00:51:23;;;;;;;81.80;60.60;;;;;;;3.91;87.07;99781.69;105030;1271;61394;-74
2022/04/30 00:53:52;;;;;;;89.60;64.40;;;;;;;3.86;87.21;99783.24;104989;1271;72300;-75
2022/04/30 00:56:43;;;;;;;92.00;65.10;;;;;;;3.80;87.20;99779.02;105058;1271;61300;-76
2022/04/30 00:59:16;;;;;;;88.30;65.50;;;;;;;3.73;87.42;99780.95;105024;1272;61888;-76
2022/04/30 01:01:44;;;;;;;87.70;63.80;;;;;;;3.68;87.75;99777.22;105009;1272;76341;-74
2022/04/30 01:04:10;;;;;;;89.70;63.90;;;;;;;3.65;87.83;99779.41;105054;1271;69473;-74
2022/04/30 01:07:00;;;;;;;93.70;66.40;;;;;;;3.62;87.87;99774.73;105026;1271;61333;-76
2022/04/30 01:09:32;;;;;;;92.20;66.70;;;;;;;3.59;88.32;99774.30;104982;1271;62801;-74
2022/04/30 01:12:06;;;;;;;89.00;65.00;;;;;;;3.56;88.73;99771.56;105045;1271;61374;-75
2022/04/30 01:14:34;;;;;;;98.20;68.00;;;;;;;3.54;88.78;99772.67;105053;1271;75269;-76
2022/04/30 01:17:04;;;;;;;93.80;65.00;;;;;;;3.52;88.93;99772.34;105057;1271;69816;-73
2022/04/30 01:19:34;;;;;;;89.80;64.80;;;;;;;3.48;88.93;99772.44;105066;1271;74257;-74
2022/04/30 01:22:02;;;;;;;93.30;65.80;;;;;;;3.45;89.12;99773.25;105129;1271;61225;-73
2022/04/30 01:24:30;;;;;;;91.40;67.30;;;;;;;3.42;89.31;99774.20;105096;1271;61170;-72
2022/04/30 01:27:00;;;;;;;93.30;65.40;;;;;;;3.40;89.76;99777.41;105096;1271;76319;-75
2022/04/30 01:29:30;;;;;;;92.20;64.50;;;;;;;3.40;90.15;99777.76;105077;1271;70897;-74
2022/04/30 01:37:29;;;;;;;96.60;68.50;;;;;;;3.37;90.97;99771.67;105026;1271;61298;-75
2022/04/30 01:39:58;;;;;;;90.70;67.40;;;;;;;3.36;90.93;99773.48;105089;1271;75283;-75
2022/04/30 01:42:35;;;;;;;93.60;67.10;;;;;;;3.34;90.93;99773.88;105061;1271;68582;-76
2022/04/30 01:45:04;;;;;;;89.90;64.20;;;;;;;3.29;90.76;99775.91;105034;1271;73737;-75
2022/04/30 01:47:33;;;;;;;88.80;64.80;;;;;;;3.23;90.72;99770.98;105056;1271;61484;-73
2022/04/30 01:50:00;;;;;;;89.60;66.60;;;;;;;3.17;90.80;99773.92;105013;1271;61243;-72
2022/04/30 01:52:25;;;;;;;96.10;69.00;;;;;;;3.14;91.18;99770.31;105042;1271;61402;-72
2022/04/30 01:54:51;;;;;;;93.20;67.40;;;;;;;3.13;91.42;99767.17;104999;1271;61837;-71
2022/04/30 01:57:23;;;;;;;97.40;68.40;;;;;;;3.13;92.00;99765.09;104921;1274;61371;-71
2022/04/30 02:00:00;;;;;;;94.50;71.10;;;;;;;3.11;92.05;99767.76;105024;1271;61180;-68
2022/04/30 02:02:48;;;;;;;97.70;70.00;;;;;;;3.08;92.03;99764.48;104968;1274;61285;-74
2022/04/30 02:05:14;;;;;;;109.60;78.10;;;;;;;3.06;92.08;99764.20;104953;1274;74301;-74
2022/04/30 02:07:52;;;;;;;121.20;83.60;;;;;;;3.01;92.13;99758.50;104903;1274;67540;-75
2022/04/30 02:10:20;;;;;;;119.70;85.30;;;;;;;2.97;92.17;99756.48;104911;1274;74395;-75
2022/04/30 02:12:49;;;;;;;125.70;84.80;;;;;;;2.94;92.16;99756.39;104940;1274;61272;-76
2022/04/30 02:15:17;;;;;;;109.80;81.10;;;;;;;2.92;92.25;99761.36;104943;1274;62105;-76
2022/04/30 02:17:46;;;;;;;114.20;81.30;;;;;;;2.88;92.36;99755.14;104906;1272;76179;-74
2022/04/30 02:20:18;;;;;;;131.40;86.70;;;;;;;2.83;92.37;99753.85;104920;1274;68146;-74
2022/04/30 02:22:45;;;;;;;122.40;84.30;;;;;;;2.80;92.64;99753.04;104928;1274;73503;-75
2022/04/30 02:25:13;;;;;;;121.40;82.80;;;;;;;2.77;92.73;99750.30;104863;1274;61381;-74
2022/04/30 02:27:41;;;;;;;112.70;79.60;;;;;;;2.74;92.85;99748.09;104903;1274;61403;-74
2022/04/30 02:30:11;;;;;;;114.20;79.10;;;;;;;2.69;92.80;99746.63;105006;1274;73652;-74
2022/04/30 02:32:40;;;;;;;119.00;79.80;;;;;;;2.65;92.88;99745.66;104675;1275;69267;-76
2022/04/30 02:35:09;;;;;;;114.20;79.50;;;;;;;2.60;92.82;99741.38;104990;1271;74419;-76
2022/04/30 02:37:35;;;;;;;114.00;79.70;;;;;;;2.58;92.95;99738.11;105053;1271;61238;-75
2022/04/30 02:40:05;;;;;;;108.10;79.30;;;;;;;2.54;93.35;99732.58;105023;1271;61174;-75
2022/04/30 02:42:32;;;;;;;102.60;77.00;;;;;;;2.51;93.55;99729.66;105022;1271;74813;-74
2022/04/30 02:44:59;;;;;;;101.80;70.20;;;;;;;2.48;93.95;99728.67;105061;1271;70168;-74
2022/04/30 02:47:25;;;;;;;97.00;70.80;;;;;;;2.46;94.03;99732.06;105097;1271;74456;-74
2022/04/30 02:49:53;;;;;;;93.70;70.70;;;;;;;2.40;94.11;99730.42;104989;1271;61764;-75
2022/04/30 02:52:20;;;;;;;102.30;73.20;;;;;;;2.37;94.49;99727.52;105048;1271;61348;-75
2022/04/30 02:54:47;;;;;;;109.90;79.00;;;;;;;2.36;95.07;99727.72;105021;1271;76566;-75
2022/04/30 02:57:12;;;;;;;101.40;73.50;;;;;;;2.36;95.42;99726.66;105009;1271;61385;-76
2022/04/30 02:59:53;;;;;;;101.10;74.50;;;;;;;2.36;95.44;99720.70;104866;1274;61581;-76
2022/04/30 03:02:21;;;;;;;103.60;76.30;;;;;;;2.35;95.45;99722.48;105025;1271;61315;-75
2022/04/30 03:04:52;;;;;;;105.90;74.80;;;;;;;2.31;95.53;99719.25;105021;1271;61355;-75
2022/04/30 03:07:21;;;;;;;108.70;76.50;;;;;;;2.25;95.62;99718.48;105068;1271;76291;-75
2022/04/30 03:09:48;;;;;;;109.30;80.90;;;;;;;2.25;95.97;99716.56;105072;1271;69687;-75
2022/04/30 03:12:15;;;;;;;106.00;75.60;;;;;;;2.27;96.46;99717.73;105001;1271;61347;-75
2022/04/30 03:14:42;;;;;;;100.20;74.50;;;;;;;2.29;96.61;99711.04;103963;1272;1003153;-75
2022/04/30 03:22:39;;;;;;;103.70;76.30;;;;;;;2.36;97.03;99704.56;105023;1271;70273;-74
2022/04/30 03:25:06;;;;;;;119.00;82.80;;;;;;;2.40;97.55;99707.11;105028;1271;61329;-74
2022/04/30 03:27:32;;;;;;;110.30;79.10;;;;;;;2.45;98.19;99708.92;105080;1271;61265;-75
2022/04/30 03:29:58;;;;;;;106.60;78.60;;;;;;;2.52;97.80;99714.91;104979;1271;61151;-76
2022/04/30 03:32:25;;;;;;;106.10;78.60;;;;;;;2.53;97.53;99716.48;104975;1271;61279;-73
2022/04/30 03:34:52;;;;;;;111.40;80.00;;;;;;;2.56;97.57;99712.01;105189;1271;61403;-74
2022/04/30 03:37:18;;;;;;;102.40;76.90;;;;;;;2.63;97.69;99714.13;105003;1271;61376;-75
2022/04/30 03:39:44;;;;;;;107.60;78.30;;;;;;;2.69;97.51;99715.92;104979;1271;62569;-74
2022/04/30 03:42:10;;;;;;;114.20;81.30;;;;;;;2.77;97.42;99709.26;105016;1271;61504;-73
2022/04/30 03:44:36;;;;;;;113.10;85.20;;;;;;;2.86;97.45;99705.00;105051;1271;61386;-74
2022/04/30 03:47:02;;;;;;;116.50;85.30;;;;;;;2.99;97.45;99705.73;105027;1271;61301;-75
2022/04/30 03:49:28;;;;;;;107.80;84.80;;;;;;;3.20;97.30;99707.66;104837;1274;61401;-74
2022/04/30 03:51:54;;;;;;;113.90;91.30;;;;;;;3.55;96.73;99707.44;104964;1271;61323;-75
2022/04/30 03:54:21;;;;;;;113.10;89.20;;;;;;;3.94;96.15;99705.32;104920;1271;61364;-75
2022/04/30 03:56:47;;;;;;;105.80;85.00;;;;;;;4.41;95.53;99707.63;105022;1271;61411;-74
2022/04/30 03:59:13;;;;;;;108.10;86.30;;;;;;;4.84;94.44;99712.26;104997;1271;61330;-76
2022/04/30 04:01:40;;;;;;;100.50;81.10;;;;;;;5.12;93.25;99710.66;105051;1271;61387;-75
2022/04/30 04:04:06;;;;;;;98.80;80.30;;;;;;;5.31;92.22;99706.86;105099;1271;61223;-75
2022/04/30 04:06:32;;;;;;;96.30;82.10;;;;;;;5.49;91.36;99704.28;104865;1274;61444;-75
2022/04/30 04:08:59;;;;;;;95.60;81.40;;;;;;;5.83;90.38;99698.52;104877;1274;61362;-74
2022/04/30 04:11:26;;;;;;;96.50;82.10;;;;;;;6.31;88.81;99697.10;104832;1274;61416;-76
2022/04/30 04:19:24;;;;;;;88.60;78.90;;;;;;;7.92;84.58;99695.55;104878;1274;76625;-75
2022/04/30 04:21:50;;;;;;;90.40;80.30;;;;;;;8.42;83.28;99697.19;104890;1274;70482;-75
2022/04/30 04:27:02;;;;;;;83.00;74.30;;;;;;;9.08;79.99;99692.27;104780;1277;61526;-76
2022/04/30 04:29:28;;;;;;;83.50;74.50;;;;;;;9.46;79.70;99692.09;104858;1274;61283;-76
2022/04/30 04:31:54;;;;;;;82.20;71.80;;;;;;;9.63;79.05;99688.04;104791;1274;61554;-76
2022/04/30 04:34:20;;;;;;;82.30;73.80;;;;;;;9.78;78.02;99687.61;104871;1274;61410;-75
2022/04/30 04:36:45;;;;;;;78.40;70.00;;;;;;;9.95;77.03;99688.83;104823;1274;61310;-76
2022/04/30 04:39:14;;;;;;;75.70;67.60;;;;;;;10.03;76.20;99690.87;104970;1271;61278;-75
2022/04/30 04:41:42;;;;;;;75.70;67.80;;;;;;;10.40;75.20;99689.27;105121;1271;61381;-77
2022/04/30 04:44:09;;;;;;;73.00;65.10;;;;;;;10.73;74.81;99687.44;105070;1271;76174;-75
2022/04/30 04:46:39;;;;;;;73.40;65.60;;;;;;;10.93;74.32;99682.40;105191;1271;69225;-75
2022/04/30 04:49:06;;;;;;;75.20;66.30;;;;;;;10.95;73.69;99686.38;105048;1271;73298;-74
2022/04/30 04:51:34;;;;;;;74.30;66.30;;;;;;;10.93;73.04;99687.52;105020;1271;61377;-75
2022/04/30 04:54:01;;;;;;;78.90;70.60;;;;;;;10.98;72.74;99686.03;105052;1271;61391;-75
2022/04/30 04:56:28;;;;;;;81.90;73.10;;;;;;;11.13;71.89;99680.91;105026;1271;75233;-76
2022/04/30 04:58:53;;;;;;;70.20;62.70;;;;;;;11.15;71.40;99680.05;104993;1271;61512;-74
2022/04/30 05:01:20;;;;;;;70.50;62.80;;;;;;;11.55;70.66;99679.30;104992;1271;61422;-74
2022/04/30 05:03:46;;;;;;;62.80;56.20;;;;;;;11.86;69.85;99674.76;105051;1271;61279;-75
2022/04/30 05:06:12;;;;;;;69.70;62.40;;;;;;;11.84;69.18;99678.77;105013;1271;61377;-75
2022/04/30 05:08:38;;;;;;;71.10;63.50;;;;;;;11.71;68.16;99680.99;105025;1271;61359;-75
2022/04/30 05:11:04;;;;;;;70.40;62.90;;;;;;;11.38;68.06;99686.01;104995;1271;61383;-76
2022/04/30 05:13:30;;;;;;;65.80;58.70;;;;;;;11.24;68.31;99682.40;105019;1271;61362;-75
2022/04/30 05:15:56;;;;;;;63.40;56.30;;;;;;;11.17;68.25;99680.51;105043;1271;61301;-75
2022/04/30 05:18:22;;;;;;;63.30;56.40;;;;;;;11.42;67.75;99681.84;105080;1271;61423;-74
2022/04/30 05:20:48;;;;;;;59.40;53.10;;;;;;;11.79;66.71;99679.78;105044;1271;70157;-75
2022/04/30 05:23:14;;;;;;;57.50;51.30;;;;;;;12.09;66.19;99682.10;105025;1271;61387;-76
2022/04/30 05:25:43;;;;;;;54.90;48.80;;;;;;;12.20;65.94;99683.20;105017;1271;61352;-75
2022/04/30 05:28:10;;;;;;;52.30;46.70;;;;;;;12.23;65.51;99686.75;105023;1271;61201;-75
2022/04/30 05:30:37;;;;;;;49.20;40.40;;;;;;;12.22;65.15;99684.83;105182;1271;75342;-75
2022/04/30 05:33:04;;;;;;;59.80;53.60;;;;;;;12.19;64.80;99685.38;104972;1271;70598;-76
2022/04/30 05:35:30;;;;;;;48.80;43.40;;;;;;;12.18;64.83;99691.68;104947;1271;61445;-73
2022/04/30 05:37:55;;;;;;;57.20;51.10;;;;;;;12.21;64.34;99691.15;105066;1271;61403;-74
2022/04/30 05:40:21;;;;;;;58.30;52.20;;;;;;;12.08;63.72;99693.94;104945;1271;61336;-76
2022/04/30 05:42:47;;;;;;;54.50;48.60;;;;;;;11.88;63.61;99691.94;104982;1271;61461;-74
2022/04/30 05:45:13;;;;;;;52.30;46.90;;;;;;;11.77;63.90;99688.98;105003;1271;61847;-75
2022/04/30 05:47:39;;;;;;;52.20;46.00;;;;;;;11.84;64.08;99686.61;105021;1271;61233;-76
2022/04/30 05:50:06;;;;;;;54.40;48.60;;;;;;;11.97;64.10;99688.34;105069;1271;61310;-75
2022/04/30 05:52:34;;;;;;;56.20;50.10;;;;;;;12.02;63.63;99690.88;105066;1271;74680;-75
2022/04/30 05:55:02;;;;;;;57.70;51.10;;;;;;;11.91;63.47;99688.75;104992;1271;61280;-76
2022/04/30 05:57:32;;;;;;;56.10;50.30;;;;;;;11.85;63.64;99683.90;105119;1271;73288;-76
2022/04/30 05:59:58;;;;;;;57.30;51.20;;;;;;;11.88;63.12;99683.20;104882;1272;61557;-75
2022/04/30 06:02:24;;;;;;;59.40;52.80;;;;;;;11.88;63.50;99684.23;104953;1271;61292;-75
2022/04/30 06:04:50;;;;;;;58.20;51.60;;;;;;;12.04;63.49;99687.89;104901;1271;61425;-76
2022/04/30 06:07:17;;;;;;;61.40;51.30;;;;;;;12.18;63.57;99692.23;105061;1271;61209;-75
2022/04/30 06:09:43;;;;;;;58.00;47.60;;;;;;;12.44;63.25;99696.99;105059;1271;61309;-74
2022/04/30 06:12:09;;;;;;;58.20;47.30;;;;;;;12.48;62.97;99696.56;105001;1271;61403;-74
2022/04/30 06:14:36;;;;;;;58.90;45.00;;;;;;;12.43;62.35;99691.15;104883;1274;61410;-74
2022/04/30 06:17:03;;;;;;;53.80;44.10;;;;;;;12.26;62.61;99687.64;105014;1271;61380;-75
2022/04/30 06:19:29;;;;;;;52.70;41.40;;;;;;;12.23;62.03;99689.59;104959;1271;61380;-75
2022/04/30 06:21:55;;;;;;;47.60;39.10;;;;;;;12.14;62.02;99688.23;105001;1271;61317;-75
2022/04/30 06:24:21;;;;;;;41.10;35.50;;;;;;;12.15;62.31;99691.19;105005;1271;61398;-75
2022/04/30 06:26:47;;;;;;;40.40;35.30;;;;;;;12.19;62.25;99692.30;104992;1271;61320;-75
2022/04/30 06:29:13;;;;;;;41.10;35.10;;;;;;;12.34;62.91;99691.02;104999;1271;61390;-74
2022/04/30 06:31:40;;;;;;;38.30;34.10;;;;;;;12.64;62.38;99691.30;104891;1274;61323;-75
2022/04/30 06:34:05;;;;;;;39.80;33.80;;;;;;;12.79;61.82;99691.55;105008;1271;61323;-74
2022/04/30 06:36:33;;;;;;;40.10;34.50;;;;;;;12.92;61.56;99688.70;105046;1271;61330;-74
2022/04/30 06:38:59;;;;;;;41.80;34.80;;;;;;;12.94;61.65;99688.06;105032;1271;76080;-76
2022/04/30 06:41:25;;;;;;;37.10;31.80;;;;;;;13.21;61.66;99686.98;104842;1274;61376;-75
2022/04/30 06:43:51;;;;;;;41.50;31.70;;;;;;;13.65;60.78;99683.32;105033;1271;61375;-76
2022/04/30 06:46:18;;;;;;;37.50;30.90;;;;;;;13.99;60.39;99685.26;105012;1271;61374;-76
2022/04/30 06:48:47;;;;;;;37.60;31.10;;;;;;;14.29;59.62;99678.36;104981;1271;61383;-75
2022/04/30 06:51:13;;;;;;;41.40;30.70;;;;;;;14.49;59.52;99676.70;104978;1271;75382;-74
2022/04/30 06:59:12;;;;;;;37.20;26.50;;;;;;;15.15;57.52;99674.03;104983;1271;61288;-77
2022/04/30 07:01:59;;;;;;;28.20;23.40;;;;;;;15.37;56.65;99673.68;104987;1271;61889;-77
2022/04/30 07:04:27;;;;;;;29.20;23.00;;;;;;;15.50;55.57;99671.27;104988;1271;75447;-77
2022/04/30 07:06:53;;;;;;;27.90;23.00;;;;;;;15.63;55.13;99665.95;104991;1271;70401;-77
2022/04/30 07:09:18;;;;;;;32.00;24.70;;;;;;;15.68;54.67;99660.34;105002;1271;61365;-76
2022/04/30 07:11:45;;;;;;;20.40;17.60;;;;;;;15.76;54.17;99657.75;105001;1271;61317;-78
2022/04/30 07:14:11;;;;;;;19.30;14.30;;;;;;;15.80;52.73;99654.78;104908;1271;61272;-72
2022/04/30 07:16:38;;;;;;;17.40;12.80;;;;;;;15.85;52.12;99654.26;104988;1271;61182;-74
2022/04/30 07:19:05;;;;;;;14.90;11.60;;;;;;;15.92;50.95;99657.05;105017;1271;61145;-76
2022/04/30 07:21:32;;;;;;;13.60;12.00;;;;;;;15.83;49.36;99656.89;104994;1271;61299;-75
2022/04/30 07:23:58;;;;;;;14.60;12.70;;;;;;;15.76;49.65;99657.23;104971;1271;61273;-76
2022/04/30 07:26:24;;;;;;;13.80;11.20;;;;;;;15.85;49.12;99654.96;104946;1271;61361;-77
2022/04/30 07:28:51;;;;;;;12.70;11.40;;;;;;;15.89;48.65;99656.26;104951;1271;61407;-74
2022/04/30 07:31:17;;;;;;;12.60;11.10;;;;;;;15.96;48.04;99657.83;104857;1274;61403;-76
2022/04/30 07:33:44;;;;;;;13.80;11.50;;;;;;;16.04;47.30;99657.90;105161;1271;61473;-76
2022/04/30 07:36:10;;;;;;;13.00;11.40;;;;;;;16.14;46.60;99655.13;105155;1271;62794;-75
2022/04/30 07:38:36;;;;;;;10.80;9.70;;;;;;;16.29;46.43;99656.13;105109;1271;61276;-76
2022/04/30 07:41:03;;;;;;;10.40;9.20;;;;;;;16.38;46.24;99661.34;104975;1271;61425;-76
2022/04/30 07:43:29;;;;;;;10.80;9.10;;;;;;;16.50;45.85;99657.86;104948;1272;61276;-77
2022/04/30 07:45:55;;;;;;;10.30;9.20;;;;;;;16.66;45.10;99659.95;104996;1271;61301;-76
2022/04/30 07:48:21;;;;;;;13.00;8.70;;;;;;;16.81;44.93;99659.27;104982;1271;61389;-76
2022/04/30 07:50:47;;;;;;;11.30;8.80;;;;;;;16.93;44.62;99656.35;104994;1271;61344;-76
2022/04/30 07:53:15;;;;;;;11.40;9.10;;;;;;;17.05;45.08;99655.52;104984;1271;61399;-77
2022/04/30 07:55:42;;;;;;;11.30;8.80;;;;;;;17.28;44.43;99649.45;105047;1271;61343;-77
2022/04/30 07:58:09;;;;;;;10.80;8.00;;;;;;;17.27;42.91;99645.71;105015;1271;61301;-75
2022/04/30 08:00:35;;;;;;;9.30;8.00;;;;;;;17.11;42.09;99649.83;104976;1271;61367;-75
2022/04/30 08:03:03;;;;;;;11.00;8.80;;;;;;;17.03;42.00;99650.27;105009;1271;61741;-75
2022/04/30 08:05:30;;;;;;;10.90;9.00;;;;;;;17.03;41.89;99651.02;105110;1271;76419;-76
2022/04/30 08:07:56;;;;;;;15.20;9.10;;;;;;;17.15;41.88;99645.86;105118;1271;71415;-75
2022/04/30 08:10:23;;;;;;;12.60;8.80;;;;;;;17.24;41.31;99644.52;104952;1271;61341;-77
2022/04/30 08:13:07;;;;;;;12.20;8.90;;;;;;;17.35;41.49;99643.83;105007;1271;61317;-74
2022/04/30 08:15:34;;;;;;;13.60;8.50;;;;;;;17.48;41.08;99643.25;105012;1271;61885;-75
2022/04/30 08:18:00;;;;;;;14.30;9.10;;;;;;;17.53;40.87;99643.55;105043;1271;73980;-75
2022/04/30 08:20:26;;;;;;;11.20;8.70;;;;;;;17.49;40.38;99643.38;104855;1274;61253;-75
2022/04/30 08:22:52;;;;;;;12.00;9.40;;;;;;;17.44;40.53;99643.77;104977;1271;61402;-74
2022/04/30 08:25:18;;;;;;;11.90;9.70;;;;;;;17.45;40.42;99639.39;104968;1271;61300;-76
2022/04/30 08:27:45;;;;;;;11.10;10.00;;;;;;;17.44;40.04;99641.42;105007;1271;62099;-74
2022/04/30 08:30:11;;;;;;;10.20;8.60;;;;;;;17.40;40.22;99640.17;104979;1271;62954;-76
2022/04/30 08:32:41;;;;;;;15.10;9.90;;;;;;;17.47;40.19;99637.95;105002;1271;61755;-76
2022/04/30 08:35:09;;;;;;;12.20;9.50;;;;;;;17.63;40.33;99635.70;104989;1271;72068;-75
2022/04/30 08:37:34;;;;;;;12.00;9.60;;;;;;;17.77;40.23;99635.52;104960;1271;61425;-76
2022/04/30 08:40:06;;;;;;;11.10;8.60;;;;;;;17.84;40.03;99635.16;104992;1271;61359;-74
2022/04/30 08:42:33;;;;;;;11.80;8.60;;;;;;;17.99;40.09;99636.88;104712;1277;74669;-75
2022/04/30 08:45:03;;;;;;;10.30;8.50;;;;;;;18.11;39.67;99630.27;105000;1271;61268;-75
2022/04/30 08:47:37;;;;;;;11.90;8.40;;;;;;;18.15;38.83;99623.81;104996;1271;74742;-74
2022/04/30 08:50:05;;;;;;;11.20;8.80;;;;;;;18.03;38.97;99623.08;104880;1274;61263;-76
2022/04/30 08:52:31;;;;;;;12.30;9.30;;;;;;;17.98;39.29;99624.61;105010;1271;61603;-75
2022/04/30 08:54:59;;;;;;;10.10;8.60;;;;;;;17.97;39.40;99618.56;104865;1271;61493;-74
2022/04/30 08:57:25;;;;;;;10.20;7.80;;;;;;;18.13;39.89;99618.58;104966;1271;69445;-76
2022/04/30 08:59:51;;;;;;;9.10;7.10;;;;;;;18.43;40.35;99619.73;104883;1272;61282;-76
2022/04/30 09:02:19;;;;;;;10.90;7.90;;;;;;;18.74;39.78;99614.70;104950;1271;61354;-76
2022/04/30 09:04:48;;;;;;;10.20;7.80;;;;;;;18.87;38.89;99614.45;104997;1268;61291;-76
2022/04/30 09:07:17;;;;;;;11.20;8.80;;;;;;;18.95;39.32;99608.36;105044;1271;75843;-77
2022/04/30 09:09:43;;;;;;;10.30;8.00;;;;;;;19.16;39.16;99608.59;104988;1271;69406;-76
2022/04/30 09:12:12;;;;;;;12.70;8.70;;;;;;;19.22;38.50;99608.60;104937;1271;61249;-76
2022/04/30 09:14:43;;;;;;;10.40;8.10;;;;;;;19.29;38.18;99600.35;105130;1271;61339;-76
2022/04/30 09:17:11;;;;;;;10.50;8.10;;;;;;;19.24;37.05;99604.45;104988;1271;61297;-75
2022/04/30 09:19:53;;;;;;;9.40;7.50;;;;;;;19.14;36.88;99596.88;104891;1272;76418;-75
2022/04/30 09:22:39;;;;;;;10.90;8.40;;;;;;;19.19;36.95;99593.94;104982;1271;69294;-76
2022/04/30 09:25:18;;;;;;;7.00;6.20;;;;;;;19.18;36.36;99593.30;104924;1271;74534;-77
2022/04/30 09:27:51;;;;;;;8.00;6.30;;;;;;;19.08;35.91;99591.83;105007;1271;61394;-75
2022/04/30 09:30:24;;;;;;;9.50;7.80;;;;;;;19.02;35.77;99588.59;105092;1271;61276;-76
2022/04/30 09:33:06;;;;;;;10.50;8.30;;;;;;;19.01;35.73;99589.64;104966;1271;75149;-75
2022/04/30 09:38:20;;;;;;;9.10;7.30;;;;;;;19.23;36.10;99583.80;105008;1271;73612;-75
2022/04/30 09:41:08;;;;;;;8.50;6.90;;;;;;;19.56;35.94;99584.86;105016;1271;61425;-75
2022/04/30 09:43:37;;;;;;;7.90;6.20;;;;;;;19.74;35.44;99579.17;105003;1269;62101;-76
2022/04/30 09:46:06;;;;;;;5.20;4.70;;;;;;;19.91;35.03;99573.05;104983;1271;76329;-75
2022/04/30 09:54:03;;;;;;;7.20;5.80;;;;;;;20.46;34.61;99567.16;105009;1271;61413;-76
2022/04/30 09:56:38;;;;;;;7.00;4.40;;;;;;;20.58;33.64;99570.29;104986;1271;61335;-76
2022/04/30 09:59:12;;;;;;;5.70;4.60;;;;;;;20.45;33.51;99563.27;105038;1271;75461;-75
2022/04/30 10:01:44;;;;;;;6.30;5.70;;;;;;;20.43;33.32;99562.41;104909;1271;69162;-75
2022/04/30 10:04:12;;;;;;;5.80;5.30;;;;;;;20.49;33.66;99557.59;104894;1271;73586;-75
2022/04/30 10:06:43;;;;;;;6.40;5.40;;;;;;;20.65;33.78;99556.06;104902;1271;61352;-75
2022/04/30 10:09:13;;;;;;;7.10;6.40;;;;;;;20.65;32.90;99551.03;104970;1271;61214;-75
2022/04/30 10:11:54;;;;;;;9.00;5.90;;;;;;;20.56;33.72;99551.66;104957;1271;76340;-76
2022/04/30 10:14:38;;;;;;;6.70;5.40;;;;;;;20.64;33.10;99550.23;105028;1271;69447;-76
2022/04/30 10:17:42;;;;;;;8.10;6.50;;;;;;;20.50;32.89;99550.70;105058;1270;73356;-75
2022/04/30 10:20:17;;;;;;;6.20;5.60;;;;;;;20.54;33.35;99552.80;104910;1271;61454;-76
2022/04/30 10:22:55;;;;;;;6.50;5.50;;;;;;;20.72;33.54;99547.42;105003;1271;61378;-77
2022/04/30 10:25:41;;;;;;;20.20;5.80;;;;;;;20.89;33.16;99544.20;105071;1271;76208;-74
2022/04/30 10:28:21;;;;;;;8.80;5.70;;;;;;;21.08;33.53;99538.70;105007;1271;70378;-76
2022/04/30 10:31:09;;;;;;;8.10;6.00;;;;;;;21.05;32.76;99535.55;104978;1271;74604;-76
2022/04/30 10:33:48;;;;;;;6.60;5.00;;;;;;;21.07;33.07;99533.71;105021;1272;61308;-75
2022/04/30 10:36:14;;;;;;;6.30;5.70;;;;;;;21.08;32.48;99533.14;105100;1271;61318;-76
2022/04/30 10:38:42;;;;;;;7.50;4.90;;;;;;;21.07;32.75;99528.73;104872;1271;61250;-75
2022/04/30 10:41:11;;;;;;;6.60;5.40;;;;;;;21.20;32.66;99524.60;104977;1271;68652;-75
2022/04/30 10:43:39;;;;;;;7.70;5.60;;;;;;;21.30;32.25;99525.58;105111;1271;73497;-77
2022/04/30 10:46:18;;;;;;;9.40;5.90;;;;;;;21.39;32.42;99521.57;105044;1271;61469;-75
2022/04/30 10:48:44;;;;;;;9.70;6.30;;;;;;;21.41;31.88;99517.97;105007;1271;61285;-76
2022/04/30 10:51:13;;;;;;;5.70;5.10;;;;;;;21.41;31.44;99512.78;104972;1271;61310;-76
2022/04/30 10:53:41;;;;;;;8.30;6.80;;;;;;;21.40;31.48;99510.33;104998;1271;69313;-76
2022/04/30 10:56:08;;;;;;;9.30;7.60;;;;;;;21.42;31.36;99509.73;104911;1271;73474;-76
2022/04/30 10:58:39;;;;;;;6.80;5.70;;;;;;;21.45;31.56;99512.09;105004;1271;61263;-75
2022/04/30 11:01:11;;;;;;;6.70;6.00;;;;;;;21.58;31.19;99506.48;105020;1271;61300;-76
2022/04/30 11:03:37;;;;;;;8.90;6.60;;;;;;;21.56;30.68;99503.79;105055;1271;73481;-74
2022/04/30 11:06:04;;;;;;;11.30;5.50;;;;;;;21.62;31.46;99504.36;105005;1271;63131;-76
2022/04/30 11:08:29;;;;;;;8.90;7.50;;;;;;;21.82;31.65;99508.08;104964;1271;61356;-78
2022/04/30 11:10:56;;;;;;;7.50;6.00;;;;;;;21.98;31.35;99503.72;104980;1271;61288;-76
2022/04/30 11:13:22;;;;;;;8.20;5.70;;;;;;;22.07;30.94;99501.06;105001;1271;61317;-76
2022/04/30 11:15:48;;;;;;;5.20;4.70;;;;;;;22.01;30.29;99506.77;105001;1271;61314;-76
2022/04/30 11:18:19;;;;;;;7.10;5.60;;;;;;;21.91;30.07;99503.17;104848;1271;61388;-74
2022/04/30 11:20:46;;;;;;;5.50;4.90;;;;;;;21.81;30.07;99502.80;105004;1271;74514;-75
2022/04/30 11:23:22;;;;;;;6.30;5.30;;;;;;;21.79;29.76;99500.65;105025;1271;61273;-75
2022/04/30 11:25:49;;;;;;;6.40;5.70;;;;;;;21.51;28.93;99495.21;104964;1271;62070;-75
2022/04/30 11:28:14;;;;;;;6.90;6.20;;;;;;;21.30;29.50;99490.70;105087;1271;61166;-75
2022/04/30 11:30:42;;;;;;;6.10;5.30;;;;;;;21.32;29.69;99491.40;105029;1271;61256;-76
2022/04/30 11:33:10;;;;;;;8.20;5.50;;;;;;;21.38;29.88;99485.42;105033;1271;74435;-76
2022/04/30 11:35:36;;;;;;;10.00;5.70;;;;;;;21.49;30.61;99486.09;105059;1271;61370;-76
2022/04/30 11:38:03;;;;;;;6.30;5.20;;;;;;;21.66;31.11;99487.67;105010;1271;61265;-76
2022/04/30 11:40:29;;;;;;;6.60;4.90;;;;;;;21.82;30.97;99483.81;105018;1271;75469;-76
2022/04/30 11:43:00;;;;;;;6.40;5.50;;;;;;;21.92;30.93;99480.11;105030;1271;61195;-76
2022/04/30 11:45:31;;;;;;;5.90;5.00;;;;;;;21.97;30.36;99478.51;105055;1271;73434;-76
2022/04/30 11:48:06;;;;;;;6.30;4.70;;;;;;;21.92;30.01;99478.96;105054;1271;61208;-76
2022/04/30 11:50:33;;;;;;;5.70;5.00;;;;;;;21.98;29.83;99472.91;104874;1271;61407;-76
2022/04/30 11:52:59;;;;;;;5.40;4.90;;;;;;;21.97;30.27;99473.73;104913;1271;76394;-77
2022/04/30 11:55:28;;;;;;;5.00;4.50;;;;;;;22.04;30.83;99471.88;104954;1271;67435;-75